sensor_id;sensor_type;location;lat;lon;timestamp;pressure;altitude;pressure_sealevel;temperature;humidity
77279;BME280;66332;50.436;15.378;2023-03-23T05:03:23;97634.03;;;7.59;80.31
77279;BME280;66332;50.436;15.378;2023-03-23T05:08:04;97628.03;;;7.74;79.22
77279;BME280;66332;50.436;15.378;2023-03-23T05:12:45;97617.22;;;7.77;78.80
77279;BME280;66332;50.436;15.378;2023-03-23T05:17:26;97619.03;;;7.53;79.88
77279;BME280;66332;50.436;15.378;2023-03-23T05:22:07;97618.56;;;7.50;80.30
77279;BME280;66332;50.436;15.378;2023-03-23T05:26:48;97635.97;;;7.43;80.55
77279;BME280;66332;50.436;15.378;2023-03-23T05:31:33;97642.06;;;7.27;81.77
77279;BME280;66332;50.436;15.378;2023-03-23T05:36:13;97621.13;;;7.35;80.72
77279;BME280;66332;50.436;15.378;2023-03-23T05:40:58;97646.25;;;7.82;79.20
77279;BME280;66332;50.436;15.378;2023-03-23T05:45:41;97639.41;;;7.81;78.49
77279;BME280;66332;50.436;15.378;2023-03-23T05:50:22;97633.56;;;7.94;78.38
77279;BME280;66332;50.436;15.378;2023-03-23T05:55:04;97643.72;;;8.12;77.89
77279;BME280;66332;50.436;15.378;2023-03-23T05:59:45;97645.50;;;7.96;78.55
77279;BME280;66332;50.436;15.378;2023-03-23T06:04:26;97640.84;;;8.07;78.50
77279;BME280;66332;50.436;15.378;2023-03-23T06:09:09;97639.09;;;7.99;80.16
77279;BME280;66332;50.436;15.378;2023-03-23T06:13:50;97623.06;;;8.17;80.76
77279;BME280;66332;50.436;15.378;2023-03-23T06:18:31;97631.75;;;8.32;80.66
77279;BME280;66332;50.436;15.378;2023-03-23T06:23:14;97631.59;;;8.48;80.05
77279;BME280;66332;50.436;15.378;2023-03-23T06:27:55;97636.44;;;9.97;77.11
77279;BME280;66332;50.436;15.378;2023-03-23T06:32:37;97639.50;;;9.36;77.70
77279;BME280;66332;50.436;15.378;2023-03-23T06:37:18;97634.22;;;9.14;78.72
77279;BME280;66332;50.436;15.378;2023-03-23T06:41:59;97630.41;;;9.32;78.68
77279;BME280;66332;50.436;15.378;2023-03-23T06:46:41;97617.38;;;9.24;78.96
77279;BME280;66332;50.436;15.378;2023-03-23T06:51:22;97634.31;;;9.42;78.80
77279;BME280;66332;50.436;15.378;2023-03-23T06:56:03;97636.34;;;9.40;78.94
77279;BME280;66332;50.436;15.378;2023-03-23T07:00:45;97624.13;;;9.33;77.62
77279;BME280;66332;50.436;15.378;2023-03-23T07:05:26;97642.78;;;9.38;77.48
77279;BME280;66332;50.436;15.378;2023-03-23T07:10:07;97655.84;;;9.53;76.37
77279;BME280;66332;50.436;15.378;2023-03-23T07:14:52;97661.38;;;9.64;75.99
77279;BME280;66332;50.436;15.378;2023-03-23T07:19:33;97659.97;;;9.62;75.19
77279;BME280;66332;50.436;15.378;2023-03-23T07:24:14;97674.97;;;9.68;74.91
77279;BME280;66332;50.436;15.378;2023-03-23T07:28:55;97665.66;;;9.65;77.06
77279;BME280;66332;50.436;15.378;2023-03-23T07:33:36;97651.88;;;9.63;76.67
77279;BME280;66332;50.436;15.378;2023-03-23T07:38:18;97664.25;;;9.91;76.55
77279;BME280;66332;50.436;15.378;2023-03-23T07:43:00;97673.88;;;10.05;76.75
77279;BME280;66332;50.436;15.378;2023-03-23T07:47:42;97678.47;;;10.25;74.10
77279;BME280;66332;50.436;15.378;2023-03-23T07:52:23;97669.31;;;10.14;73.83
77279;BME280;66332;50.436;15.378;2023-03-23T07:57:04;97678.16;;;10.34;73.41
77279;BME280;66332;50.436;15.378;2023-03-23T08:01:46;97667.91;;;10.40;74.08
77279;BME280;66332;50.436;15.378;2023-03-23T08:06:27;97671.56;;;10.45;73.71
77279;BME280;66332;50.436;15.378;2023-03-23T08:11:08;97676.34;;;10.63;70.29
77279;BME280;66332;50.436;15.378;2023-03-23T08:15:50;97683.84;;;10.66;72.62
77279;BME280;66332;50.436;15.378;2023-03-23T08:20:32;97675.97;;;10.66;72.29
77279;BME280;66332;50.436;15.378;2023-03-23T08:25:13;97679.28;;;10.82;71.23
77279;BME280;66332;50.436;15.378;2023-03-23T08:29:57;97676.81;;;10.80;73.11
77279;BME280;66332;50.436;15.378;2023-03-23T08:34:39;97667.19;;;10.94;71.71
77279;BME280;66332;50.436;15.378;2023-03-23T08:39:19;97678.97;;;11.05;70.47
77279;BME280;66332;50.436;15.378;2023-03-23T08:44:00;97688.56;;;11.25;70.63
77279;BME280;66332;50.436;15.378;2023-03-23T08:48:42;97677.88;;;11.27;70.97
77279;BME280;66332;50.436;15.378;2023-03-23T08:53:24;97682.34;;;11.40;69.65
77279;BME280;66332;50.436;15.378;2023-03-23T08:58:05;97676.94;;;11.61;69.38
77279;BME280;66332;50.436;15.378;2023-03-23T09:02:51;97676.16;;;11.74;67.29
77279;BME280;66332;50.436;15.378;2023-03-23T09:07:32;97675.59;;;11.92;66.04
77279;BME280;66332;50.436;15.378;2023-03-23T09:12:13;97670.31;;;11.99;66.51
77279;BME280;66332;50.436;15.378;2023-03-23T09:16:54;97653.31;;;12.01;67.02
77279;BME280;66332;50.436;15.378;2023-03-23T09:21:35;97655.31;;;12.46;65.12
77279;BME280;66332;50.436;15.378;2023-03-23T09:26:17;97650.81;;;12.59;63.93
77279;BME280;66332;50.436;15.378;2023-03-23T09:30:57;97662.88;;;13.00;61.95
77279;BME280;66332;50.436;15.378;2023-03-23T09:35:39;97661.97;;;13.33;61.07
77279;BME280;66332;50.436;15.378;2023-03-23T09:40:25;97644.72;;;13.30;60.80
77279;BME280;66332;50.436;15.378;2023-03-23T09:45:23;97656.69;;;13.33;61.45
77279;BME280;66332;50.436;15.378;2023-03-23T09:50:18;97652.44;;;13.25;62.17
77279;BME280;66332;50.436;15.378;2023-03-23T09:54:59;97665.28;;;13.53;61.72
77279;BME280;66332;50.436;15.378;2023-03-23T09:59:57;97659.84;;;13.48;62.57
77279;BME280;66332;50.436;15.378;2023-03-23T10:04:49;97657.38;;;13.53;62.38
77279;BME280;66332;50.436;15.378;2023-03-23T10:09:30;97656.53;;;13.60;62.10
77279;BME280;66332;50.436;15.378;2023-03-23T10:23:50;97644.00;;;13.80;59.93
77279;BME280;66332;50.436;15.378;2023-03-23T10:28:38;97628.47;;;13.90;59.44
77279;BME280;66332;50.436;15.378;2023-03-23T10:33:32;97649.25;;;14.37;58.74
77279;BME280;66332;50.436;15.378;2023-03-23T10:38:23;97644.16;;;14.35;58.88
77279;BME280;66332;50.436;15.378;2023-03-23T10:43:06;97636.28;;;14.29;59.39
77279;BME280;66332;50.436;15.378;2023-03-23T10:48:11;97617.25;;;14.20;63.10
77279;BME280;66332;50.436;15.378;2023-03-23T10:52:55;97643.06;;;14.18;62.74
77279;BME280;66332;50.436;15.378;2023-03-23T10:57:40;97634.44;;;14.54;62.12
77279;BME280;66332;50.436;15.378;2023-03-23T11:02:23;97630.84;;;14.85;61.04
77279;BME280;66332;50.436;15.378;2023-03-23T11:07:19;97614.47;;;14.77;61.03
77279;BME280;66332;50.436;15.378;2023-03-23T11:12:01;97639.97;;;14.89;61.14
77279;BME280;66332;50.436;15.378;2023-03-23T11:16:54;97642.06;;;15.18;59.75
77279;BME280;66332;50.436;15.378;2023-03-23T11:21:36;97635.91;;;15.66;59.34
77279;BME280;66332;50.436;15.378;2023-03-23T11:26:22;97640.97;;;16.09;54.60
77279;BME280;66332;50.436;15.378;2023-03-23T11:31:05;97647.47;;;16.13;55.05
77279;BME280;66332;50.436;15.378;2023-03-23T11:35:47;97647.91;;;16.22;50.18
77279;BME280;66332;50.436;15.378;2023-03-23T11:40:32;97639.38;;;16.20;49.93
77279;BME280;66332;50.436;15.378;2023-03-23T11:55:14;97627.41;;;16.29;48.96
77279;BME280;66332;50.436;15.378;2023-03-23T12:00:42;97637.75;;;16.42;49.32
77279;BME280;66332;50.436;15.378;2023-03-23T12:06:21;97605.84;;;16.25;46.99
77279;BME280;66332;50.436;15.378;2023-03-23T12:12:18;97630.38;;;16.56;45.69
77279;BME280;66332;50.436;15.378;2023-03-23T12:17:23;97587.00;;;16.27;45.97
77279;BME280;66332;50.436;15.378;2023-03-23T12:22:28;97620.81;;;16.43;46.32
77279;BME280;66332;50.436;15.378;2023-03-23T12:42:12;97618.50;;;16.23;46.57
77279;BME280;66332;50.436;15.378;2023-03-23T12:52:20;97618.03;;;16.38;48.49
77279;BME280;66332;50.436;15.378;2023-03-23T13:02:31;97633.50;;;16.18;50.78
77279;BME280;66332;50.436;15.378;2023-03-23T13:07:28;97619.97;;;15.84;52.15
77279;BME280;66332;50.436;15.378;2023-03-23T13:12:11;97641.63;;;15.81;53.53
77279;BME280;66332;50.436;15.378;2023-03-23T13:26:49;97638.50;;;15.72;52.99
77279;BME280;66332;50.436;15.378;2023-03-23T13:31:33;97639.22;;;15.79;54.56
77279;BME280;66332;50.436;15.378;2023-03-23T13:36:15;97630.44;;;15.79;53.48
77279;BME280;66332;50.436;15.378;2023-03-23T13:40:57;97623.56;;;15.90;53.68
77279;BME280;66332;50.436;15.378;2023-03-23T13:45:46;97640.69;;;15.75;53.27
77279;BME280;66332;50.436;15.378;2023-03-23T13:50:29;97623.63;;;15.71;54.37
77279;BME280;66332;50.436;15.378;2023-03-23T13:59:59;97627.53;;;15.38;57.90
77279;BME280;66332;50.436;15.378;2023-03-23T14:04:50;97632.38;;;15.72;56.36
77279;BME280;66332;50.436;15.378;2023-03-23T14:09:39;97631.84;;;15.51;57.32
77279;BME280;66332;50.436;15.378;2023-03-23T14:14:32;97630.13;;;15.57;56.65
77279;BME280;66332;50.436;15.378;2023-03-23T14:19:23;97617.25;;;15.30;57.37
77279;BME280;66332;50.436;15.378;2023-03-23T14:24:29;97628.56;;;15.37;56.93
77279;BME280;66332;50.436;15.378;2023-03-23T14:29:12;97626.63;;;15.45;56.72
77279;BME280;66332;50.436;15.378;2023-03-23T14:33:56;97635.88;;;15.54;59.59
77279;BME280;66332;50.436;15.378;2023-03-23T14:38:37;97628.97;;;15.53;61.25
77279;BME280;66332;50.436;15.378;2023-03-23T14:43:20;97637.31;;;15.38;59.86
77279;BME280;66332;50.436;15.378;2023-03-23T14:48:03;97635.88;;;15.24;60.52
77279;BME280;66332;50.436;15.378;2023-03-23T14:52:47;97642.66;;;15.20;62.44
77279;BME280;66332;50.436;15.378;2023-03-23T14:57:29;97619.44;;;14.85;65.17
77279;BME280;66332;50.436;15.378;2023-03-23T15:02:32;97613.59;;;14.64;66.80
77279;BME280;66332;50.436;15.378;2023-03-23T15:07:15;97610.06;;;14.52;68.77
77279;BME280;66332;50.436;15.378;2023-03-23T15:12:03;97597.31;;;14.42;68.95
77279;BME280;66332;50.436;15.378;2023-03-23T15:16:45;97593.56;;;14.68;66.86
77279;BME280;66332;50.436;15.378;2023-03-23T15:21:35;97586.09;;;14.65;66.27
77279;BME280;66332;50.436;15.378;2023-03-23T15:26:42;97587.84;;;14.72;68.93
77279;BME280;66332;50.436;15.378;2023-03-23T15:31:24;97598.16;;;14.80;70.19
77279;BME280;66332;50.436;15.378;2023-03-23T15:36:07;97578.00;;;14.60;67.29
77279;BME280;66332;50.436;15.378;2023-03-23T15:40:54;97586.44;;;14.69;66.72
77279;BME280;66332;50.436;15.378;2023-03-23T15:45:35;97585.50;;;14.63;65.59
77279;BME280;66332;50.436;15.378;2023-03-23T15:50:19;97584.56;;;14.58;65.91
77279;BME280;66332;50.436;15.378;2023-03-23T15:55:00;97583.84;;;14.44;65.91
77279;BME280;66332;50.436;15.378;2023-03-23T15:59:41;97598.03;;;14.31;68.18
77279;BME280;66332;50.436;15.378;2023-03-23T16:04:22;97600.53;;;14.44;67.51
77279;BME280;66332;50.436;15.378;2023-03-23T16:09:04;97583.56;;;14.34;67.38
77279;BME280;66332;50.436;15.378;2023-03-23T16:13:46;97601.06;;;14.53;67.86
77279;BME280;66332;50.436;15.378;2023-03-23T16:18:27;97596.59;;;14.54;66.87
77279;BME280;66332;50.436;15.378;2023-03-23T16:23:10;97604.47;;;14.35;67.23
77279;BME280;66332;50.436;15.378;2023-03-23T16:28:16;97568.09;;;13.87;67.32
77279;BME280;66332;50.436;15.378;2023-03-23T16:33:07;97590.41;;;13.98;67.72
77279;BME280;66332;50.436;15.378;2023-03-23T16:37:51;97598.75;;;13.95;67.96
77279;BME280;66332;50.436;15.378;2023-03-23T16:42:33;97594.78;;;13.86;69.73
77279;BME280;66332;50.436;15.378;2023-03-23T16:47:20;97635.38;;;14.16;71.54
77279;BME280;66332;50.436;15.378;2023-03-23T16:52:08;97612.91;;;13.82;69.39
77279;BME280;66332;50.436;15.378;2023-03-23T16:56:55;97642.63;;;14.28;65.72
77279;BME280;66332;50.436;15.378;2023-03-23T17:01:39;97653.38;;;14.26;66.45
77279;BME280;66332;50.436;15.378;2023-03-23T17:06:29;97668.03;;;14.04;66.76
77279;BME280;66332;50.436;15.378;2023-03-23T17:16:53;97674.91;;;14.30;65.18
77279;BME280;66332;50.436;15.378;2023-03-23T17:21:36;97674.56;;;14.01;64.65
77279;BME280;66332;50.436;15.378;2023-03-23T17:26:23;97669.09;;;14.21;63.97
77279;BME280;66332;50.436;15.378;2023-03-23T17:31:14;97643.31;;;13.91;64.96
77279;BME280;66332;50.436;15.378;2023-03-23T17:35:58;97673.00;;;14.18;64.83
77279;BME280;66332;50.436;15.378;2023-03-23T17:46:09;97657.03;;;14.07;63.35
77279;BME280;66332;50.436;15.378;2023-03-23T17:51:06;97686.38;;;14.23;62.37
77279;BME280;66332;50.436;15.378;2023-03-23T17:56:25;97679.84;;;14.26;60.98
77279;BME280;66332;50.436;15.378;2023-03-23T18:13:12;97700.66;;;14.41;59.91
77279;BME280;66332;50.436;15.378;2023-03-23T18:18:10;97699.25;;;14.38;59.84
77279;BME280;66332;50.436;15.378;2023-03-23T18:22:51;97707.00;;;14.40;59.87
77279;BME280;66332;50.436;15.378;2023-03-23T18:27:37;97710.81;;;14.44;59.59
77279;BME280;66332;50.436;15.378;2023-03-23T18:32:39;97718.59;;;14.39;59.69
77279;BME280;66332;50.436;15.378;2023-03-23T18:37:26;97684.22;;;14.14;59.65
77279;BME280;66332;50.436;15.378;2023-03-23T18:42:08;97685.63;;;14.16;59.36
77279;BME280;66332;50.436;15.378;2023-03-23T18:47:09;97703.16;;;14.36;59.43
77279;BME280;66332;50.436;15.378;2023-03-23T18:52:21;97698.91;;;14.35;59.28
77279;BME280;66332;50.436;15.378;2023-03-23T18:57:18;97705.69;;;14.24;59.56
77279;BME280;66332;50.436;15.378;2023-03-23T19:02:28;97684.44;;;14.12;59.87
77279;BME280;66332;50.436;15.378;2023-03-23T19:07:11;97713.09;;;14.15;60.40
77279;BME280;66332;50.436;15.378;2023-03-23T19:17:40;97718.69;;;14.26;60.24
77279;BME280;66332;50.436;15.378;2023-03-23T19:22:27;97713.72;;;14.11;60.07
77279;BME280;66332;50.436;15.378;2023-03-23T19:27:09;97689.66;;;13.94;59.63
77279;BME280;66332;50.436;15.378;2023-03-23T19:31:50;97703.81;;;14.06;59.90
77279;BME280;66332;50.436;15.378;2023-03-23T19:36:34;97730.34;;;14.18;59.77
77279;BME280;66332;50.436;15.378;2023-03-23T19:41:17;97713.91;;;14.16;59.42
77279;BME280;66332;50.436;15.378;2023-03-23T19:46:04;97727.53;;;14.13;59.69
77279;BME280;66332;50.436;15.378;2023-03-23T19:50:49;97708.53;;;13.97;59.93
77279;BME280;66332;50.436;15.378;2023-03-23T19:55:32;97718.13;;;13.92;59.88
77279;BME280;66332;50.436;15.378;2023-03-23T20:00:13;97704.41;;;13.76;60.28
77279;BME280;66332;50.436;15.378;2023-03-23T20:05:04;97713.50;;;13.81;60.42
77279;BME280;66332;50.436;15.378;2023-03-23T20:10:11;97713.50;;;13.81;59.98
77279;BME280;66332;50.436;15.378;2023-03-23T20:14:52;97712.13;;;13.71;60.15
77279;BME280;66332;50.436;15.378;2023-03-23T20:19:50;97732.38;;;13.84;60.23
77279;BME280;66332;50.436;15.378;2023-03-23T20:24:31;97716.25;;;13.67;60.81
77279;BME280;66332;50.436;15.378;2023-03-23T20:29:13;97701.84;;;13.57;61.00
77279;BME280;66332;50.436;15.378;2023-03-23T20:33:56;97716.81;;;13.76;60.74
77279;BME280;66332;50.436;15.378;2023-03-23T20:38:41;97703.50;;;13.58;60.79
77279;BME280;66332;50.436;15.378;2023-03-23T20:43:23;97721.91;;;13.71;61.01
77279;BME280;66332;50.436;15.378;2023-03-23T20:48:09;97720.69;;;13.73;60.47
77279;BME280;66332;50.436;15.378;2023-03-23T20:52:50;97728.19;;;13.76;60.37
77279;BME280;66332;50.436;15.378;2023-03-23T20:57:31;97731.19;;;13.80;60.21
77279;BME280;66332;50.436;15.378;2023-03-23T21:02:15;97732.38;;;13.84;59.90
77279;BME280;66332;50.436;15.378;2023-03-23T21:06:57;97714.16;;;13.69;60.51
77279;BME280;66332;50.436;15.378;2023-03-23T21:11:41;97736.50;;;13.80;60.44
77279;BME280;66332;50.436;15.378;2023-03-23T21:16:23;97735.31;;;13.69;60.59
77279;BME280;66332;50.436;15.378;2023-03-23T21:21:04;97733.31;;;13.65;60.93
77279;BME280;66332;50.436;15.378;2023-03-23T21:25:47;97723.22;;;13.55;60.88
77279;BME280;66332;50.436;15.378;2023-03-23T21:30:28;97720.72;;;13.60;60.65
77279;BME280;66332;50.436;15.378;2023-03-23T21:35:09;97731.53;;;13.59;61.33
77279;BME280;66332;50.436;15.378;2023-03-23T21:39:50;97726.84;;;13.61;61.39
77279;BME280;66332;50.436;15.378;2023-03-23T21:44:32;97715.94;;;13.44;62.03
77279;BME280;66332;50.436;15.378;2023-03-23T21:49:16;97720.81;;;13.47;62.07
77279;BME280;66332;50.436;15.378;2023-03-23T21:53:57;97704.59;;;13.23;63.00
77279;BME280;66332;50.436;15.378;2023-03-23T21:58:38;97719.22;;;13.32;63.15
77279;BME280;66332;50.436;15.378;2023-03-23T22:03:22;97721.91;;;13.26;63.90
77279;BME280;66332;50.436;15.378;2023-03-23T22:08:03;97714.41;;;13.09;64.79
77279;BME280;66332;50.436;15.378;2023-03-23T22:12:44;97678.34;;;12.97;64.50
77279;BME280;66332;50.436;15.378;2023-03-23T22:17:25;97684.81;;;13.01;64.61
77279;BME280;66332;50.436;15.378;2023-03-23T22:22:06;97697.44;;;12.85;65.74
77279;BME280;66332;50.436;15.378;2023-03-23T22:26:47;97682.25;;;12.68;66.53
77279;BME280;66332;50.436;15.378;2023-03-23T22:31:30;97702.59;;;12.27;68.73
77279;BME280;66332;50.436;15.378;2023-03-23T22:36:14;97698.72;;;12.03;70.25
77279;BME280;66332;50.436;15.378;2023-03-23T22:40:56;97696.66;;;11.85;71.71
77279;BME280;66332;50.436;15.378;2023-03-23T22:45:37;97696.97;;;11.62;72.87
77279;BME280;66332;50.436;15.378;2023-03-23T22:50:19;97662.72;;;11.36;73.36
